Flight Track Log - Related Links

Times and Time Zones

All times are in EDT time to prevent confusion due to time zone crossing. See the N3746H flight status page for this flight to view local times or setup timezone preferences in your user account.

Time Position Orientation Groundspeed Altitude Reporting Facility
EDT Latitude Longitude Course Direction KTS MPH feet Rate Location/Type
Tue 10:49:00 AM 19.5550 -99.0146 25° Northeast  Level FlightAware Approximate
Tue 10:50:00 AM 19.6737 -98.9570 25° Northeast  Level FlightAware Approximate
Tue 10:51:00 AM 19.7939 -98.8986 25° Northeast  Level FlightAware Approximate
Tue 10:52:00 AM 19.9141 -98.8401 25° Northeast  Level FlightAware Approximate
Tue 10:53:00 AM 20.0343 -98.7815 25° Northeast  Level FlightAware Approximate
Tue 10:54:00 AM 20.1545 -98.7228 25° Northeast  Level FlightAware Approximate
Tue 10:55:00 AM 20.2747 -98.6640 25° Northeast  Level FlightAware Approximate
Tue 10:56:00 AM 20.3948 -98.6052 25° Northeast  Level FlightAware Approximate
Tue 10:57:00 AM 20.5149 -98.5462 25° Northeast  Level FlightAware Approximate
Tue 10:58:00 AM 20.6350 -98.4872 25° Northeast  Level FlightAware Approximate
Tue 10:59:00 AM 20.7551 -98.4280 25° Northeast  Level FlightAware Approximate
Tue 11:00:00 AM 20.8752 -98.3688 25° Northeast  Level FlightAware Approximate
Tue 11:01:00 AM 20.9952 -98.3094 25° Northeast  Level FlightAware Approximate
Tue 11:02:00 AM 21.1152 -98.2500 25° Northeast  Level FlightAware Approximate
Tue 11:03:00 AM 21.2352 -98.1905 25° Northeast  Level FlightAware Approximate
Tue 11:04:00 AM 21.3409 -98.1380 25° Northeast  Level FlightAware Approximate
Tue 11:05:00 AM 21.4610 -98.0788 25° Northeast  Level FlightAware Approximate
Tue 11:06:00 AM 21.5811 -98.0193 25° Northeast  Level FlightAware Approximate
Tue 11:07:00 AM 21.7012 -97.9598 25° Northeast  Level FlightAware Approximate
Tue 11:08:00 AM 21.8213 -97.9003 25° Northeast  Level FlightAware Approximate
Tue 11:09:00 AM 21.9413 -97.8406 25° Northeast  Level FlightAware Approximate
Tue 11:10:00 AM 22.0614 -97.7807 25° Northeast  Level FlightAware Approximate
Tue 11:11:00 AM 22.1814 -97.7208 25° Northeast  Level FlightAware Approximate
Tue 11:12:00 AM 22.3013 -97.6608 25° Northeast  Level FlightAware Approximate
Tue 11:13:00 AM 22.4213 -97.6007 25° Northeast  Level FlightAware Approximate
Tue 11:14:00 AM 22.5412 -97.5405 25° Northeast  Level FlightAware Approximate
Tue 11:15:00 AM 22.6611 -97.4802 25° Northeast  Level FlightAware Approximate
Tue 11:16:00 AM 22.7810 -97.4198 25° Northeast  Level FlightAware Approximate
Tue 11:17:00 AM 22.9009 -97.3593 25° Northeast  Level FlightAware Approximate
Tue 11:18:00 AM 23.0232 -97.2974 25° Northeast  Level FlightAware Approximate
Tue 11:19:00 AM 23.1455 -97.2356 25° Northeast  Level FlightAware Approximate
Tue 11:20:00 AM 23.2680 -97.1743 25° Northeast  Level FlightAware Approximate
Tue 11:21:00 AM 23.3829 -97.0977 32° Northeast  Level FlightAware Approximate
Tue 11:22:00 AM 23.4967 -97.0188 32° Northeast  Level FlightAware Approximate
Tue 11:23:00 AM 23.6105 -96.9397 32° Northeast  Level FlightAware Approximate
Tue 11:24:00 AM 23.7242 -96.8605 33° Northeast  Level FlightAware Approximate
Tue 11:25:00 AM 23.8378 -96.7811 33° Northeast  Level FlightAware Approximate
Tue 11:26:00 AM 23.9514 -96.7016 33° Northeast  Level FlightAware Approximate
Tue 11:27:00 AM 24.0650 -96.6220 33° Northeast  Level FlightAware Approximate
Tue 11:28:00 AM 24.1786 -96.5422 33° Northeast  Level FlightAware Approximate
Tue 11:29:00 AM 24.2921 -96.4623 33° Northeast  Level FlightAware Approximate
Tue 11:30:00 AM 24.4055 -96.3823 33° Northeast  Level FlightAware Approximate
Tue 11:31:00 AM 24.5189 -96.3021 33° Northeast  Level FlightAware Approximate
Tue 11:32:00 AM 24.6323 -96.2217 33° Northeast  Level FlightAware Approximate
Tue 11:33:00 AM 24.7456 -96.1413 33° Northeast  Level FlightAware Approximate
Tue 11:34:00 AM 24.8589 -96.0606 33° Northeast  Level FlightAware Approximate
Tue 11:35:00 AM 24.9722 -95.9799 33° Northeast  Level FlightAware Approximate
Tue 11:36:00 AM 25.0854 -95.8989 33° Northeast  Level FlightAware Approximate
Tue 11:37:00 AM 25.1985 -95.8179 33° Northeast  Level FlightAware Approximate
Tue 11:38:00 AM 25.3116 -95.7366 33° Northeast  Level FlightAware Approximate
Tue 11:38:41 AM 25.0606 -95.9319 45° Northeast 509 586 37,000  Level Houston Center
Tue 11:39:00 AM 25.4247 -95.6553 33° Northeast  Level FlightAware Approximate
Tue 11:39:43 AM 25.1778 -95.8478 33° Northeast 507 583 37,000  Level Houston Center
Tue 11:40:00 AM 25.5377 -95.5737 33° Northeast  Level FlightAware Approximate
Tue 11:40:45 AM 25.2914 -95.7669 33° Northeast 503 579 36,900  Level Houston Center
Tue 11:41:00 AM 25.6447 -95.4840 46° Northeast  Level FlightAware Approximate
Tue 11:41:47 AM 25.4092 -95.6814 33° Northeast 502 578 37,000  Level Houston Center
Tue 11:42:00 AM 25.7389 -95.3771 45° Northeast  Level FlightAware Approximate
Tue 11:42:50 AM 25.5522 -95.5775 33° Northeast 504 580 37,000  Level Houston Center
Tue 11:43:00 AM 25.8341 -95.2710 45° Northeast  Level FlightAware Approximate
Tue 11:43:52 AM 25.6686 -95.4806 37° Northeast 511 588 37,000  Level Houston Center
Tue 11:44:54 AM 25.7694 -95.3700 45° Northeast 512 589 37,000  Level Houston Center
Tue 11:45:56 AM 25.8689 -95.2603 45° Northeast 508 585 37,000  Level Houston Center
Tue 11:46:58 AM 25.9847 -95.1308 45° Northeast 513 590 37,000 -48 Level Houston Center
Tue 11:48:00 AM 26.0844 -95.0211 45° Northeast 509 586 36,900  Descending Houston Center
Tue 11:49:02 AM 26.1831 -94.9092 46° Northeast 507 583 37,000  Climbing Houston Center
Tue 11:50:04 AM 26.2842 -94.7972 45° Northeast 509 586 36,900  Descending Houston Center
Tue 11:51:07 AM 26.3825 -94.6858 45° Northeast 508 585 37,000 48 Climbing Houston Center
Tue 11:52:09 AM 26.4953 -94.5600 45° Northeast 508 585 37,000  Level Houston Center
Tue 11:53:11 AM 26.5956 -94.4472 45° Northeast 510 587 37,000  Level Houston Center
Tue 11:54:13 AM 26.6947 -94.3350 45° Northeast 509 586 37,000  Level Houston Center
Tue 11:55:15 AM 26.7956 -94.2208 45° Northeast 513 590 37,000  Level Houston Center
Tue 11:56:17 AM 26.9131 -94.0883 45° Northeast 507 583 37,000  Level Houston Center
Tue 11:57:19 AM 27.0125 -93.9739 46° Northeast 509 586 37,000  Level Houston Center
Tue 11:58:21 AM 27.1122 -93.8603 45° Northeast 510 587 37,000  Level Houston Center
Tue 11:59:24 AM 27.2114 -93.7456 46° Northeast 512 589 37,000  Level Houston Center
Tue 12:00:26 PM 27.3100 -93.6322 46° Northeast 510 587 37,000  Level Houston Center
Tue 12:01:28 PM 27.4269 -93.4975 46° Northeast 506 582 37,000  Level Houston Center
Tue 12:02:30 PM 27.5281 -93.3803 46° Northeast 511 588 37,000  Level Houston Center
Tue 12:03:32 PM 27.6244 -93.2611 48° Northeast 514 592 37,000  Level Houston Center
Tue 12:04:34 PM 27.7178 -93.1403 49° Northeast 515 593 37,000  Level Houston Center
Tue 12:05:36 PM 27.8092 -93.0211 49° Northeast 512 589 37,000  Level Houston Center
Tue 12:06:38 PM 27.8997 -92.9025 49° Northeast 508 585 37,000  Level Houston Center
Tue 12:07:41 PM 28.0056 -92.7636 49° Northeast 500 575 37,000  Level Houston Center
Tue 12:08:43 PM 28.0967 -92.6431 49° Northeast 502 578 37,000  Level Houston Center
Tue 12:09:45 PM 28.1875 -92.5233 49° Northeast 504 580 37,000  Level Houston Center
Tue 12:10:47 PM 28.2781 -92.4025 50° Northeast 503 579 37,000 -48 Level Houston Center
Tue 12:11:49 PM 28.3733 -92.2769 49° Northeast 508 585 36,900 -48 Descending Houston Center
Tue 12:12:51 PM 28.4658 -92.1556 49° Northeast 509 586 36,900 48 Level Houston Center
Tue 12:13:53 PM 28.5750 -92.0086 50° Northeast 507 583 37,000  Climbing Houston Center
Tue 12:14:55 PM 28.6639 -91.8861 50° Northeast 504 580 36,900  Descending Houston Center
Tue 12:15:58 PM 28.7536 -91.7661 50° Northeast 501 577 37,000 48 Climbing Houston Center
Tue 12:17:00 PM 28.8450 -91.6456 49° Northeast 501 577 37,000 -48 Level Houston Center
Tue 12:18:02 PM 28.9361 -91.5283 48° Northeast 498 573 36,900 -48 Descending Houston Center
Tue 12:19:04 PM 29.0442 -91.3867 49° Northeast 495 570 36,900 48 Level Houston Center
Tue 12:20:06 PM 29.1317 -91.2642 51° Northeast 496 571 37,000 48 Climbing Houston Center
Tue 12:21:08 PM 29.2214 -91.1442 49° Northeast 497 572 37,000  Level Houston Center
Tue 12:22:10 PM 29.3089 -91.0214 51° Northeast 498 573 37,000  Level Houston Center
Tue 12:23:12 PM 29.3986 -90.8978 50° Northeast 500 575 37,000  Level Houston Center
Tue 12:24:15 PM 29.4861 -90.7744 51° Northeast 501 577 37,000 -48 Level Houston Center
Tue 12:25:17 PM 29.5933 -90.6267 50° Northeast 502 578 36,900 -48 Descending Houston Center
Tue 12:26:19 PM 29.6822 -90.5039 50° Northeast 501 577 36,900  Level Houston Center
Tue 12:27:21 PM 29.7703 -90.3806 51° Northeast 499 574 36,900 48 Level Houston Center
Tue 12:28:23 PM 29.8572 -90.2569 51° Northeast 498 573 37,000 48 Climbing Houston Center
Tue 12:29:25 PM 29.9450 -90.1325 51° Northeast 501 577 37,000  Level Houston Center
Tue 12:30:27 PM 30.0483 -89.9828 51° Northeast 499 574 37,000 -48 Level Houston Center
Tue 12:31:29 PM 30.1347 -89.8575 51° Northeast 501 577 36,900  Descending Houston Center
Tue 12:32:32 PM 30.2194 -89.7322 52° Northeast 503 579 37,000 48 Climbing Houston Center
Tue 12:33:34 PM 30.3056 -89.6089 51° Northeast 509 586 37,000 -48 Level Houston Center
Tue 12:34:36 PM 30.4219 -89.4814 43° Northeast 491 565 36,900  Descending Houston Center
Tue 12:35:38 PM 30.5464 -89.4342 18° North 475 547 37,000 48 Climbing Houston Center
Tue 12:36:40 PM 30.6728 -89.3883 17° North 477 549 37,000  Level Houston Center
Tue 12:37:42 PM 30.7983 -89.3433 17° North 474 545 37,000  Level Houston Center
Tue 12:38:44 PM 30.9242 -89.2986 17° North 475 547 37,000  Level Houston Center
Tue 12:39:47 PM 31.0744 -89.2436 17° North 472 543 37,000 -48 Level Houston Center
Tue 12:40:49 PM 31.1839 -89.1525 35° Northeast 491 565 36,900  Descending Houston Center
Tue 12:41:51 PM 31.2442 -89.0089 64° Northeast 495 570 37,000 48 Climbing Houston Center
Tue 12:42:53 PM 31.2767 -88.8550 76° East 501 577 37,000  Level Houston Center
Tue 12:43:55 PM 31.3086 -88.6950 77° East 502 578 37,000  Level Houston Center
Tue 12:44:57 PM 31.3478 -88.5050 76° East 498 573 37,000  Level Houston Center
Tue 12:45:59 PM 31.3806 -88.3447 76° East 500 575 37,000  Level Houston Center
Tue 12:47:05 PM 31.4119 -88.1847 77° East 483 556 37,000  Level Atlanta Center
Tue 12:48:05 PM 31.4444 -88.0281 76° East 490 564 37,000  Level Atlanta Center
Tue 12:49:05 PM 31.4869 -87.8717 72° East 490 564 37,000  Level Atlanta Center
Tue 12:50:05 PM 31.5617 -87.7408 56° Northeast 485 558 37,000 -50 Level Atlanta Center
Tue 12:51:05 PM 31.6428 -87.6100 54° Northeast 480 552 36,900 -550 Descending Atlanta Center
Tue 12:52:05 PM 31.7194 -87.4811 55° Northeast 480 552 35,900 -950 Descending Atlanta Center
Tue 12:53:05 PM 31.8003 -87.3522 54° Northeast 485 558 35,000 -900 Descending Atlanta Center
Tue 12:54:05 PM 31.8725 -87.2206 57° Northeast 485 558 34,100 -950 Descending Atlanta Center
Tue 12:55:05 PM 31.9511 -87.0886 55° Northeast 485 558 33,100 -950 Descending Atlanta Center
Tue 12:56:05 PM 32.0314 -86.9567 54° Northeast 485 558 32,200 -950 Descending Atlanta Center
Tue 12:57:05 PM 32.1117 -86.8244 54° Northeast 485 558 31,200 -1,000 Descending Atlanta Center
Tue 12:58:05 PM 32.1981 -86.6922 52° Northeast 490 564 30,200 -1,000 Descending Atlanta Center
Tue 12:59:05 PM 32.2761 -86.5569 56° Northeast 490 564 29,200 -600 Descending Atlanta Center
Tue 01:00:05 PM 32.3539 -86.4214 56° Northeast 490 564 29,000 -100 Descending Atlanta Center
Tue 01:01:05 PM 32.4233 -86.2831 59° Northeast 490 564 29,000  Level Atlanta Center
Tue 01:02:05 PM 32.5050 -86.1472 54° Northeast 496 571 29,000 -150 Level Atlanta Center
Tue 01:03:05 PM 32.5867 -86.0086 55° Northeast 502 578 28,700 -600 Descending Atlanta Center
Tue 01:04:05 PM 32.6681 -85.8722 55° Northeast 502 578 27,800 -1,250 Descending Atlanta Center
Tue 01:05:05 PM 32.7472 -85.7356 55° Northeast 502 578 26,200 -2,150 Descending Atlanta Center
Tue 01:06:05 PM 32.8222 -85.5986 57° Northeast 502 578 23,500 -2,750 Descending Atlanta Center
Tue 01:07:05 PM 32.8925 -85.4811 55° Northeast 472 543 20,700 -2,650 Descending Atlanta Center
Tue 01:08:05 PM 32.9564 -85.3733 55° Northeast 429 494 18,200 -2,200 Descending Atlanta Center
Tue 01:09:05 PM 33.0136 -85.2675 57° Northeast 397 457 16,300 -2,050 Descending Atlanta Center
Tue 01:10:05 PM 33.0836 -85.1644 51° Northeast 365 420 14,100 -2,000 Descending Atlanta Center
Tue 01:11:05 PM 33.1492 -85.0733 49° Northeast 355 409 12,300 -1,050 Descending Atlanta Center
Tue 01:12:05 PM 33.2103 -84.9947 47° Northeast 335 386 12,000 -850 Descending Atlanta Center
Tue 01:13:05 PM 33.2650 -84.9233 47° Northeast 308 354 10,600 -1,550 Descending Atlanta Center
Tue 01:14:05 PM 33.3219 -84.8567 44° Northeast 290 334 8,900 -2,400 Descending Atlanta Center
Tue 01:15:05 PM 33.3869 -84.8075 32° Northeast 271 312 5,800 -2,901 Descending Atlanta Center
Tue 01:15:36 PM 33.4167 -84.7833 34° Northeast 269 310 4,500 -1,187 Descending Atlanta TRACON
Tue 01:16:36 PM 33.4833 -84.7333 32° Northeast 249 287 4,000 -714 Descending Atlanta TRACON
Tue 01:17:42 PM 33.5333 -84.6833 40° Northeast 237 273 3,000 -476 Descending Atlanta TRACON
Tue 01:18:42 PM 33.5833 -84.6500 29° Northeast 228 262 3,000  Level Atlanta TRACON

Login

Don't have an account? Register now (free) for customized features, flight alerts, and more!